sensor_id;sensor_type;location;lat;lon;timestamp;pressure;altitude;pressure_sealevel;temperature
22828;BMP180;11580;52.562;13.418;2023-03-17T00:02:01;100828.00;;;9.20
22828;BMP180;11580;52.562;13.418;2023-03-17T00:04:30;100825.00;;;9.20
22828;BMP180;11580;52.562;13.418;2023-03-17T00:06:58;100823.00;;;9.10
22828;BMP180;11580;52.562;13.418;2023-03-17T00:09:25;100784.00;;;9.10
22828;BMP180;11580;52.562;13.418;2023-03-17T00:11:53;100816.00;;;9.10
22828;BMP180;11580;52.562;13.418;2023-03-17T00:14:20;100821.00;;;9.10
22828;BMP180;11580;52.562;13.418;2023-03-17T00:16:49;100828.00;;;9.00
22828;BMP180;11580;52.562;13.418;2023-03-17T00:19:25;100820.00;;;9.00
22828;BMP180;11580;52.562;13.418;2023-03-17T00:21:54;100818.00;;;9.00
22828;BMP180;11580;52.562;13.418;2023-03-17T00:24:22;100813.00;;;9.00
22828;BMP180;11580;52.562;13.418;2023-03-17T00:26:49;100815.00;;;9.00
22828;BMP180;11580;52.562;13.418;2023-03-17T00:29:16;100815.00;;;9.00
22828;BMP180;11580;52.562;13.418;2023-03-17T00:31:44;100812.00;;;9.00
22828;BMP180;11580;52.562;13.418;2023-03-17T00:34:16;100807.00;;;8.90
22828;BMP180;11580;52.562;13.418;2023-03-17T00:36:48;100792.00;;;8.90
22828;BMP180;11580;52.562;13.418;2023-03-17T00:39:18;100792.00;;;8.90
22828;BMP180;11580;52.562;13.418;2023-03-17T00:41:45;100791.00;;;8.90
22828;BMP180;11580;52.562;13.418;2023-03-17T00:44:13;100791.00;;;8.90
22828;BMP180;11580;52.562;13.418;2023-03-17T00:46:40;100785.00;;;8.90
22828;BMP180;11580;52.562;13.418;2023-03-17T00:49:14;100775.00;;;8.80
22828;BMP180;11580;52.562;13.418;2023-03-17T00:51:42;100778.00;;;8.90
22828;BMP180;11580;52.562;13.418;2023-03-17T00:54:10;100772.00;;;8.90
22828;BMP180;11580;52.562;13.418;2023-03-17T00:56:40;100766.00;;;8.90
22828;BMP180;11580;52.562;13.418;2023-03-17T00:59:18;100772.00;;;8.90
22828;BMP180;11580;52.562;13.418;2023-03-17T01:01:47;100748.00;;;8.90
22828;BMP180;11580;52.562;13.418;2023-03-17T01:04:14;100758.00;;;8.90
22828;BMP180;11580;52.562;13.418;2023-03-17T01:06:42;100753.00;;;8.90
22828;BMP180;11580;52.562;13.418;2023-03-17T01:09:12;100762.00;;;8.90
22828;BMP180;11580;52.562;13.418;2023-03-17T01:11:41;100766.00;;;8.90
22828;BMP180;11580;52.562;13.418;2023-03-17T01:14:09;100764.00;;;8.90
22828;BMP180;11580;52.562;13.418;2023-03-17T01:16:37;100754.00;;;8.90
22828;BMP180;11580;52.562;13.418;2023-03-17T01:19:05;100740.00;;;8.90
22828;BMP180;11580;52.562;13.418;2023-03-17T01:21:32;100742.00;;;8.90
22828;BMP180;11580;52.562;13.418;2023-03-17T01:23:59;100742.00;;;8.90
22828;BMP180;11580;52.562;13.418;2023-03-17T01:26:27;100733.00;;;8.90
22828;BMP180;11580;52.562;13.418;2023-03-17T01:28:56;100733.00;;;9.00
22828;BMP180;11580;52.562;13.418;2023-03-17T01:31:23;100725.00;;;9.00
22828;BMP180;11580;52.562;13.418;2023-03-17T01:33:51;100724.00;;;9.00
22828;BMP180;11580;52.562;13.418;2023-03-17T01:36:18;100723.00;;;9.10
22828;BMP180;11580;52.562;13.418;2023-03-17T01:38:46;100725.00;;;9.10
22828;BMP180;11580;52.562;13.418;2023-03-17T01:41:17;100727.00;;;9.20
22828;BMP180;11580;52.562;13.418;2023-03-17T01:43:45;100727.00;;;9.20
22828;BMP180;11580;52.562;13.418;2023-03-17T01:46:23;100707.00;;;9.20
22828;BMP180;11580;52.562;13.418;2023-03-17T01:49:02;100716.00;;;9.30
22828;BMP180;11580;52.562;13.418;2023-03-17T01:51:36;100713.00;;;9.30
22828;BMP180;11580;52.562;13.418;2023-03-17T01:54:08;100709.00;;;9.30
22828;BMP180;11580;52.562;13.418;2023-03-17T01:56:39;100695.00;;;9.30
22828;BMP180;11580;52.562;13.418;2023-03-17T01:59:13;100694.00;;;9.30
22828;BMP180;11580;52.562;13.418;2023-03-17T02:01:49;100686.00;;;9.40
22828;BMP180;11580;52.562;13.418;2023-03-17T02:04:19;100692.00;;;9.40
22828;BMP180;11580;52.562;13.418;2023-03-17T02:06:49;100702.00;;;9.40
22828;BMP180;11580;52.562;13.418;2023-03-17T02:09:16;100690.00;;;9.40
22828;BMP180;11580;52.562;13.418;2023-03-17T02:11:44;100689.00;;;9.40
22828;BMP180;11580;52.562;13.418;2023-03-17T02:14:11;100690.00;;;9.40
22828;BMP180;11580;52.562;13.418;2023-03-17T02:16:39;100697.00;;;9.40
22828;BMP180;11580;52.562;13.418;2023-03-17T02:19:08;100686.00;;;9.40
22828;BMP180;11580;52.562;13.418;2023-03-17T02:21:42;100687.00;;;9.40
22828;BMP180;11580;52.562;13.418;2023-03-17T02:24:19;100678.00;;;9.40
22828;BMP180;11580;52.562;13.418;2023-03-17T02:26:50;100678.00;;;9.40
22828;BMP180;11580;52.562;13.418;2023-03-17T02:29:21;100659.00;;;9.40
22828;BMP180;11580;52.562;13.418;2023-03-17T02:31:48;100676.00;;;9.40
22828;BMP180;11580;52.562;13.418;2023-03-17T02:34:16;100677.00;;;9.40
22828;BMP180;11580;52.562;13.418;2023-03-17T02:36:44;100669.00;;;9.40
22828;BMP180;11580;52.562;13.418;2023-03-17T02:39:18;100667.00;;;9.40
22828;BMP180;11580;52.562;13.418;2023-03-17T02:41:46;100664.00;;;9.40
22828;BMP180;11580;52.562;13.418;2023-03-17T02:44:13;100653.00;;;9.40
22828;BMP180;11580;52.562;13.418;2023-03-17T02:46:41;100655.00;;;9.50
22828;BMP180;11580;52.562;13.418;2023-03-17T02:49:08;100654.00;;;9.50
22828;BMP180;11580;52.562;13.418;2023-03-17T02:51:36;100656.00;;;9.50
22828;BMP180;11580;52.562;13.418;2023-03-17T02:54:05;100661.00;;;9.50
22828;BMP180;11580;52.562;13.418;2023-03-17T02:56:32;100655.00;;;9.50
22828;BMP180;11580;52.562;13.418;2023-03-17T02:58:59;100656.00;;;9.50
22828;BMP180;11580;52.562;13.418;2023-03-17T03:01:27;100657.00;;;9.50
22828;BMP180;11580;52.562;13.418;2023-03-17T03:03:55;100652.00;;;9.60
22828;BMP180;11580;52.562;13.418;2023-03-17T03:06:23;100656.00;;;9.60
22828;BMP180;11580;52.562;13.418;2023-03-17T03:08:51;100654.00;;;9.60
22828;BMP180;11580;52.562;13.418;2023-03-17T03:11:19;100656.00;;;9.60
22828;BMP180;11580;52.562;13.418;2023-03-17T03:13:46;100657.00;;;9.60
22828;BMP180;11580;52.562;13.418;2023-03-17T03:16:15;100658.00;;;9.60
22828;BMP180;11580;52.562;13.418;2023-03-17T03:18:42;100667.00;;;9.60
22828;BMP180;11580;52.562;13.418;2023-03-17T03:21:10;100674.00;;;9.60
22828;BMP180;11580;52.562;13.418;2023-03-17T03:23:37;100681.00;;;9.60
22828;BMP180;11580;52.562;13.418;2023-03-17T03:26:04;100686.00;;;9.60
22828;BMP180;11580;52.562;13.418;2023-03-17T03:28:34;100690.00;;;9.70
22828;BMP180;11580;52.562;13.418;2023-03-17T03:31:01;100691.00;;;9.70
22828;BMP180;11580;52.562;13.418;2023-03-17T03:33:28;100687.00;;;9.70
22828;BMP180;11580;52.562;13.418;2023-03-17T03:35:56;100688.00;;;9.70
22828;BMP180;11580;52.562;13.418;2023-03-17T03:38:24;100685.00;;;9.70
22828;BMP180;11580;52.562;13.418;2023-03-17T03:40:51;100680.00;;;9.70
22828;BMP180;11580;52.562;13.418;2023-03-17T03:43:19;100675.00;;;9.70
22828;BMP180;11580;52.562;13.418;2023-03-17T03:45:48;100673.00;;;9.70
22828;BMP180;11580;52.562;13.418;2023-03-17T03:48:15;100671.00;;;9.70
22828;BMP180;11580;52.562;13.418;2023-03-17T03:50:43;100679.00;;;9.70
22828;BMP180;11580;52.562;13.418;2023-03-17T03:53:10;100671.00;;;9.70
22828;BMP180;11580;52.562;13.418;2023-03-17T03:55:37;100671.00;;;9.70
22828;BMP180;11580;52.562;13.418;2023-03-17T03:58:05;100672.00;;;9.70
22828;BMP180;11580;52.562;13.418;2023-03-17T04:00:33;100666.00;;;9.70
22828;BMP180;11580;52.562;13.418;2023-03-17T04:03:02;100671.00;;;9.80
22828;BMP180;11580;52.562;13.418;2023-03-17T04:05:29;100664.00;;;9.70
22828;BMP180;11580;52.562;13.418;2023-03-17T04:07:56;100683.00;;;9.70
22828;BMP180;11580;52.562;13.418;2023-03-17T04:10:24;100662.00;;;9.70
22828;BMP180;11580;52.562;13.418;2023-03-17T04:12:51;100668.00;;;9.70
22828;BMP180;11580;52.562;13.418;2023-03-17T04:15:19;100664.00;;;9.70
22828;BMP180;11580;52.562;13.418;2023-03-17T04:17:46;100655.00;;;9.70
22828;BMP180;11580;52.562;13.418;2023-03-17T04:20:16;100656.00;;;9.70
22828;BMP180;11580;52.562;13.418;2023-03-17T04:22:44;100651.00;;;9.70
22828;BMP180;11580;52.562;13.418;2023-03-17T04:25:14;100652.00;;;9.70
22828;BMP180;11580;52.562;13.418;2023-03-17T04:27:42;100643.00;;;9.70
22828;BMP180;11580;52.562;13.418;2023-03-17T04:30:11;100631.00;;;9.70
22828;BMP180;11580;52.562;13.418;2023-03-17T04:32:39;100624.00;;;9.70
22828;BMP180;11580;52.562;13.418;2023-03-17T04:35:12;100617.00;;;9.70
22828;BMP180;11580;52.562;13.418;2023-03-17T04:37:41;100622.00;;;9.70
22828;BMP180;11580;52.562;13.418;2023-03-17T04:40:11;100619.00;;;9.60
22828;BMP180;11580;52.562;13.418;2023-03-17T04:42:39;100628.00;;;9.60
22828;BMP180;11580;52.562;13.418;2023-03-17T04:45:09;100635.00;;;9.60
22828;BMP180;11580;52.562;13.418;2023-03-17T04:47:37;100640.00;;;9.60
22828;BMP180;11580;52.562;13.418;2023-03-17T04:50:06;100638.00;;;9.60
22828;BMP180;11580;52.562;13.418;2023-03-17T04:52:34;100637.00;;;9.60
22828;BMP180;11580;52.562;13.418;2023-03-17T04:55:03;100636.00;;;9.50
22828;BMP180;11580;52.562;13.418;2023-03-17T04:57:31;100632.00;;;9.50
22828;BMP180;11580;52.562;13.418;2023-03-17T04:59:58;100630.00;;;9.50
22828;BMP180;11580;52.562;13.418;2023-03-17T05:02:26;100617.00;;;9.50
22828;BMP180;11580;52.562;13.418;2023-03-17T05:04:53;100629.00;;;9.50
22828;BMP180;11580;52.562;13.418;2023-03-17T05:07:21;100635.00;;;9.50
22828;BMP180;11580;52.562;13.418;2023-03-17T05:09:48;100633.00;;;9.50
22828;BMP180;11580;52.562;13.418;2023-03-17T05:12:18;100639.00;;;9.50
22828;BMP180;11580;52.562;13.418;2023-03-17T05:14:45;100632.00;;;9.40
22828;BMP180;11580;52.562;13.418;2023-03-17T05:17:12;100615.00;;;9.50
22828;BMP180;11580;52.562;13.418;2023-03-17T05:19:40;100595.00;;;9.40
22828;BMP180;11580;52.562;13.418;2023-03-17T05:22:07;100601.00;;;9.40
22828;BMP180;11580;52.562;13.418;2023-03-17T05:24:34;100605.00;;;9.50
22828;BMP180;11580;52.562;13.418;2023-03-17T05:27:02;100619.00;;;9.50
22828;BMP180;11580;52.562;13.418;2023-03-17T05:29:30;100623.00;;;9.50
22828;BMP180;11580;52.562;13.418;2023-03-17T05:31:57;100631.00;;;9.50
22828;BMP180;11580;52.562;13.418;2023-03-17T05:34:24;100618.00;;;9.50
22828;BMP180;11580;52.562;13.418;2023-03-17T05:36:52;100621.00;;;9.60
22828;BMP180;11580;52.562;13.418;2023-03-17T05:39:19;100616.00;;;9.60
22828;BMP180;11580;52.562;13.418;2023-03-17T05:41:46;100625.00;;;9.60
22828;BMP180;11580;52.562;13.418;2023-03-17T05:44:13;100617.00;;;9.70
22828;BMP180;11580;52.562;13.418;2023-03-17T05:46:42;100625.00;;;9.70
22828;BMP180;11580;52.562;13.418;2023-03-17T05:49:09;100618.00;;;9.70
22828;BMP180;11580;52.562;13.418;2023-03-17T05:51:37;100628.00;;;9.80
22828;BMP180;11580;52.562;13.418;2023-03-17T05:54:04;100635.00;;;9.80
22828;BMP180;11580;52.562;13.418;2023-03-17T05:56:32;100632.00;;;9.80
22828;BMP180;11580;52.562;13.418;2023-03-17T05:58:59;100640.00;;;9.90
22828;BMP180;11580;52.562;13.418;2023-03-17T06:01:27;100639.00;;;9.90
22828;BMP180;11580;52.562;13.418;2023-03-17T06:03:56;100635.00;;;10.00
22828;BMP180;11580;52.562;13.418;2023-03-17T06:06:25;100630.00;;;10.00
22828;BMP180;11580;52.562;13.418;2023-03-17T06:08:53;100623.00;;;10.10
22828;BMP180;11580;52.562;13.418;2023-03-17T06:11:21;100616.00;;;10.10
22828;BMP180;11580;52.562;13.418;2023-03-17T06:13:48;100608.00;;;10.20
22828;BMP180;11580;52.562;13.418;2023-03-17T06:16:15;100607.00;;;10.20
22828;BMP180;11580;52.562;13.418;2023-03-17T06:18:43;100602.00;;;10.20
22828;BMP180;11580;52.562;13.418;2023-03-17T06:21:12;100603.00;;;10.30
22828;BMP180;11580;52.562;13.418;2023-03-17T06:23:39;100615.00;;;10.30
22828;BMP180;11580;52.562;13.418;2023-03-17T06:26:07;100611.00;;;10.30
22828;BMP180;11580;52.562;13.418;2023-03-17T06:28:34;100611.00;;;10.40
22828;BMP180;11580;52.562;13.418;2023-03-17T06:31:01;100607.00;;;10.40
22828;BMP180;11580;52.562;13.418;2023-03-17T06:33:29;100619.00;;;10.50
22828;BMP180;11580;52.562;13.418;2023-03-17T06:35:56;100608.00;;;10.50
22828;BMP180;11580;52.562;13.418;2023-03-17T06:38:26;100569.00;;;10.50
22828;BMP180;11580;52.562;13.418;2023-03-17T06:40:53;100608.00;;;10.60
22828;BMP180;11580;52.562;13.418;2023-03-17T06:43:20;100595.00;;;10.60
22828;BMP180;11580;52.562;13.418;2023-03-17T06:45:49;100606.00;;;10.70
22828;BMP180;11580;52.562;13.418;2023-03-17T06:48:17;100599.00;;;10.70
22828;BMP180;11580;52.562;13.418;2023-03-17T06:50:44;100596.00;;;10.80
22828;BMP180;11580;52.562;13.418;2023-03-17T06:53:12;100574.00;;;10.80
22828;BMP180;11580;52.562;13.418;2023-03-17T06:55:41;100579.00;;;10.80
22828;BMP180;11580;52.562;13.418;2023-03-17T06:58:08;100579.00;;;10.90
22828;BMP180;11580;52.562;13.418;2023-03-17T07:00:38;100598.00;;;10.90
22828;BMP180;11580;52.562;13.418;2023-03-17T07:03:05;100580.00;;;11.00
22828;BMP180;11580;52.562;13.418;2023-03-17T07:05:34;100595.00;;;11.00
22828;BMP180;11580;52.562;13.418;2023-03-17T07:08:03;100595.00;;;11.10
22828;BMP180;11580;52.562;13.418;2023-03-17T07:10:30;100586.00;;;11.20
22828;BMP180;11580;52.562;13.418;2023-03-17T07:12:59;100587.00;;;11.20
22828;BMP180;11580;52.562;13.418;2023-03-17T07:15:27;100591.00;;;11.30
22828;BMP180;11580;52.562;13.418;2023-03-17T07:17:56;100588.00;;;11.40
22828;BMP180;11580;52.562;13.418;2023-03-17T07:20:23;100569.00;;;11.50
22828;BMP180;11580;52.562;13.418;2023-03-17T07:22:50;100571.00;;;11.50
22828;BMP180;11580;52.562;13.418;2023-03-17T07:25:18;100586.00;;;11.50
22828;BMP180;11580;52.562;13.418;2023-03-17T07:27:45;100578.00;;;11.60
22828;BMP180;11580;52.562;13.418;2023-03-17T07:30:14;100576.00;;;11.60
22828;BMP180;11580;52.562;13.418;2023-03-17T07:32:43;100574.00;;;11.70
22828;BMP180;11580;52.562;13.418;2023-03-17T07:35:11;100562.00;;;11.80
22828;BMP180;11580;52.562;13.418;2023-03-17T07:37:39;100552.00;;;11.90
22828;BMP180;11580;52.562;13.418;2023-03-17T07:40:10;100564.00;;;12.00
22828;BMP180;11580;52.562;13.418;2023-03-17T07:42:37;100563.00;;;12.10
22828;BMP180;11580;52.562;13.418;2023-03-17T07:45:06;100558.00;;;12.20
22828;BMP180;11580;52.562;13.418;2023-03-17T07:47:34;100546.00;;;12.40
22828;BMP180;11580;52.562;13.418;2023-03-17T07:50:02;100556.00;;;12.50
22828;BMP180;11580;52.562;13.418;2023-03-17T07:52:30;100567.00;;;12.60
22828;BMP180;11580;52.562;13.418;2023-03-17T07:54:58;100589.00;;;12.70
22828;BMP180;11580;52.562;13.418;2023-03-17T07:57:25;100593.00;;;12.80
22828;BMP180;11580;52.562;13.418;2023-03-17T07:59:53;100591.00;;;12.90
22828;BMP180;11580;52.562;13.418;2023-03-17T08:02:20;100582.00;;;13.00
22828;BMP180;11580;52.562;13.418;2023-03-17T08:04:49;100597.00;;;13.10
22828;BMP180;11580;52.562;13.418;2023-03-17T08:07:16;100573.00;;;13.10
22828;BMP180;11580;52.562;13.418;2023-03-17T08:09:44;100569.00;;;13.20
22828;BMP180;11580;52.562;13.418;2023-03-17T08:12:12;100582.00;;;13.20
22828;BMP180;11580;52.562;13.418;2023-03-17T08:14:39;100588.00;;;13.30
22828;BMP180;11580;52.562;13.418;2023-03-17T08:17:07;100572.00;;;13.40
22828;BMP180;11580;52.562;13.418;2023-03-17T08:19:35;100580.00;;;13.40
22828;BMP180;11580;52.562;13.418;2023-03-17T08:22:04;100565.00;;;13.60
22828;BMP180;11580;52.562;13.418;2023-03-17T08:24:31;100560.00;;;13.70
22828;BMP180;11580;52.562;13.418;2023-03-17T08:26:59;100564.00;;;13.80
22828;BMP180;11580;52.562;13.418;2023-03-17T08:29:26;100558.00;;;13.90
22828;BMP180;11580;52.562;13.418;2023-03-17T08:31:53;100555.00;;;14.10
22828;BMP180;11580;52.562;13.418;2023-03-17T08:34:21;100549.00;;;14.20
22828;BMP180;11580;52.562;13.418;2023-03-17T08:36:49;100543.00;;;14.40
22828;BMP180;11580;52.562;13.418;2023-03-17T08:39:18;100549.00;;;14.50
22828;BMP180;11580;52.562;13.418;2023-03-17T08:41:45;100550.00;;;14.60
22828;BMP180;11580;52.562;13.418;2023-03-17T08:44:12;100554.00;;;14.80
22828;BMP180;11580;52.562;13.418;2023-03-17T08:46:40;100551.00;;;14.90
22828;BMP180;11580;52.562;13.418;2023-03-17T08:49:07;100544.00;;;15.00
22828;BMP180;11580;52.562;13.418;2023-03-17T08:51:37;100538.00;;;15.10
22828;BMP180;11580;52.562;13.418;2023-03-17T08:54:05;100534.00;;;15.20
22828;BMP180;11580;52.562;13.418;2023-03-17T08:56:34;100526.00;;;15.30
22828;BMP180;11580;52.562;13.418;2023-03-17T08:59:02;100529.00;;;15.30
22828;BMP180;11580;52.562;13.418;2023-03-17T09:01:31;100522.00;;;15.50
22828;BMP180;11580;52.562;13.418;2023-03-17T09:04:00;100521.00;;;15.60
22828;BMP180;11580;52.562;13.418;2023-03-17T09:06:27;100529.00;;;15.60
22828;BMP180;11580;52.562;13.418;2023-03-17T09:08:55;100522.00;;;15.60
22828;BMP180;11580;52.562;13.418;2023-03-17T09:11:26;100533.00;;;15.70
22828;BMP180;11580;52.562;13.418;2023-03-17T09:13:55;100529.00;;;15.70
22828;BMP180;11580;52.562;13.418;2023-03-17T09:16:23;100525.00;;;15.80
22828;BMP180;11580;52.562;13.418;2023-03-17T09:18:50;100528.00;;;15.90
22828;BMP180;11580;52.562;13.418;2023-03-17T09:21:18;100523.00;;;16.00
22828;BMP180;11580;52.562;13.418;2023-03-17T09:23:46;100531.00;;;16.10
22828;BMP180;11580;52.562;13.418;2023-03-17T09:26:13;100532.00;;;16.20
22828;BMP180;11580;52.562;13.418;2023-03-17T09:28:41;100525.00;;;16.30
22828;BMP180;11580;52.562;13.418;2023-03-17T09:31:10;100533.00;;;16.40
22828;BMP180;11580;52.562;13.418;2023-03-17T09:33:39;100528.00;;;16.40
22828;BMP180;11580;52.562;13.418;2023-03-17T09:36:07;100526.00;;;16.50
22828;BMP180;11580;52.562;13.418;2023-03-17T09:38:35;100515.00;;;16.50
22828;BMP180;11580;52.562;13.418;2023-03-17T09:41:31;100526.00;;;16.50
22828;BMP180;11580;52.562;13.418;2023-03-17T09:44:12;100526.00;;;16.60
22828;BMP180;11580;52.562;13.418;2023-03-17T09:46:54;100528.00;;;16.60
22828;BMP180;11580;52.562;13.418;2023-03-17T09:49:33;100529.00;;;16.70
22828;BMP180;11580;52.562;13.418;2023-03-17T09:52:02;100534.00;;;16.80
22828;BMP180;11580;52.562;13.418;2023-03-17T09:54:33;100525.00;;;16.80
22828;BMP180;11580;52.562;13.418;2023-03-17T09:57:11;100532.00;;;16.90
22828;BMP180;11580;52.562;13.418;2023-03-17T09:59:42;100524.00;;;16.90
22828;BMP180;11580;52.562;13.418;2023-03-17T10:02:20;100524.00;;;17.00
22828;BMP180;11580;52.562;13.418;2023-03-17T10:04:48;100520.00;;;17.10
22828;BMP180;11580;52.562;13.418;2023-03-17T10:07:22;100506.00;;;17.20
22828;BMP180;11580;52.562;13.418;2023-03-17T10:10:00;100505.00;;;17.20
22828;BMP180;11580;52.562;13.418;2023-03-17T10:12:43;100507.00;;;17.10
22828;BMP180;11580;52.562;13.418;2023-03-17T10:15:20;100513.00;;;17.30
22828;BMP180;11580;52.562;13.418;2023-03-17T10:17:51;100514.00;;;17.40
22828;BMP180;11580;52.562;13.418;2023-03-17T10:20:26;100524.00;;;17.40
22828;BMP180;11580;52.562;13.418;2023-03-17T10:22:56;100524.00;;;17.40
22828;BMP180;11580;52.562;13.418;2023-03-17T10:25:28;100531.00;;;17.50
22828;BMP180;11580;52.562;13.418;2023-03-17T10:28:01;100518.00;;;17.50
22828;BMP180;11580;52.562;13.418;2023-03-17T10:30:31;100528.00;;;17.50
22828;BMP180;11580;52.562;13.418;2023-03-17T10:33:03;100511.00;;;17.50
22828;BMP180;11580;52.562;13.418;2023-03-17T10:35:32;100529.00;;;17.60
22828;BMP180;11580;52.562;13.418;2023-03-17T10:38:13;100514.00;;;17.70
22828;BMP180;11580;52.562;13.418;2023-03-17T10:40:45;100507.00;;;17.70
22828;BMP180;11580;52.562;13.418;2023-03-17T10:43:19;100520.00;;;17.70
22828;BMP180;11580;52.562;13.418;2023-03-17T10:45:57;100507.00;;;17.80
22828;BMP180;11580;52.562;13.418;2023-03-17T10:48:29;100514.00;;;17.80
22828;BMP180;11580;52.562;13.418;2023-03-17T10:50:57;100500.00;;;17.90
22828;BMP180;11580;52.562;13.418;2023-03-17T10:53:26;100511.00;;;18.00
22828;BMP180;11580;52.562;13.418;2023-03-17T10:55:58;100501.00;;;18.10
22828;BMP180;11580;52.562;13.418;2023-03-17T10:58:42;100495.00;;;18.20
22828;BMP180;11580;52.562;13.418;2023-03-17T11:01:20;100505.00;;;18.30
22828;BMP180;11580;52.562;13.418;2023-03-17T11:03:49;100495.00;;;18.40
22828;BMP180;11580;52.562;13.418;2023-03-17T11:06:18;100492.00;;;18.50
22828;BMP180;11580;52.562;13.418;2023-03-17T11:08:49;100494.00;;;18.50
22828;BMP180;11580;52.562;13.418;2023-03-17T11:11:25;100484.00;;;18.60
22828;BMP180;11580;52.562;13.418;2023-03-17T11:14:01;100483.00;;;18.70
22828;BMP180;11580;52.562;13.418;2023-03-17T11:16:32;100489.00;;;18.70
22828;BMP180;11580;52.562;13.418;2023-03-17T11:19:05;100491.00;;;18.70
22828;BMP180;11580;52.562;13.418;2023-03-17T11:21:46;100484.00;;;18.80
22828;BMP180;11580;52.562;13.418;2023-03-17T11:24:20;100479.00;;;18.80
22828;BMP180;11580;52.562;13.418;2023-03-17T11:26:57;100482.00;;;18.80
22828;BMP180;11580;52.562;13.418;2023-03-17T11:29:48;100484.00;;;18.80
22828;BMP180;11580;52.562;13.418;2023-03-17T11:32:30;100478.00;;;18.80
22828;BMP180;11580;52.562;13.418;2023-03-17T11:38:26;100483.00;;;18.90
22828;BMP180;11580;52.562;13.418;2023-03-17T11:41:24;100478.00;;;19.00
22828;BMP180;11580;52.562;13.418;2023-03-17T11:47:28;100477.00;;;19.10
22828;BMP180;11580;52.562;13.418;2023-03-17T11:50:07;100476.00;;;19.10
22828;BMP180;11580;52.562;13.418;2023-03-17T11:52:51;100474.00;;;19.20
22828;BMP180;11580;52.562;13.418;2023-03-17T11:55:29;100470.00;;;19.30
22828;BMP180;11580;52.562;13.418;2023-03-17T11:58:04;100472.00;;;19.30
22828;BMP180;11580;52.562;13.418;2023-03-17T12:00:40;100462.00;;;19.40
22828;BMP180;11580;52.562;13.418;2023-03-17T12:03:17;100465.00;;;19.40
22828;BMP180;11580;52.562;13.418;2023-03-17T12:05:53;100459.00;;;19.50
22828;BMP180;11580;52.562;13.418;2023-03-17T12:08:35;100450.00;;;19.50
22828;BMP180;11580;52.562;13.418;2023-03-17T12:11:08;100457.00;;;19.60
22828;BMP180;11580;52.562;13.418;2023-03-17T12:13:41;100456.00;;;19.60
22828;BMP180;11580;52.562;13.418;2023-03-17T12:16:19;100455.00;;;19.60
22828;BMP180;11580;52.562;13.418;2023-03-17T12:19:00;100444.00;;;19.60
22828;BMP180;11580;52.562;13.418;2023-03-17T12:21:35;100448.00;;;19.60
22828;BMP180;11580;52.562;13.418;2023-03-17T12:24:12;100448.00;;;19.70
22828;BMP180;11580;52.562;13.418;2023-03-17T12:26:53;100446.00;;;19.70
22828;BMP180;11580;52.562;13.418;2023-03-17T12:29:36;100440.00;;;19.70
22828;BMP180;11580;52.562;13.418;2023-03-17T12:32:11;100440.00;;;19.70
22828;BMP180;11580;52.562;13.418;2023-03-17T12:34:49;100444.00;;;19.70
22828;BMP180;11580;52.562;13.418;2023-03-17T12:37:18;100436.00;;;19.70
22828;BMP180;11580;52.562;13.418;2023-03-17T12:39:55;100433.00;;;19.70
22828;BMP180;11580;52.562;13.418;2023-03-17T12:42:45;100435.00;;;19.70
22828;BMP180;11580;52.562;13.418;2023-03-17T12:45:44;100426.00;;;19.80
22828;BMP180;11580;52.562;13.418;2023-03-17T12:51:55;100415.00;;;19.80
22828;BMP180;11580;52.562;13.418;2023-03-17T12:54:28;100403.00;;;19.90
22828;BMP180;11580;52.562;13.418;2023-03-17T12:57:05;100394.00;;;19.90
22828;BMP180;11580;52.562;13.418;2023-03-17T12:59:40;100406.00;;;20.00
22828;BMP180;11580;52.562;13.418;2023-03-17T13:02:17;100402.00;;;20.00
22828;BMP180;11580;52.562;13.418;2023-03-17T13:04:52;100392.00;;;20.00
22828;BMP180;11580;52.562;13.418;2023-03-17T13:07:25;100398.00;;;20.00
22828;BMP180;11580;52.562;13.418;2023-03-17T13:10:20;100402.00;;;20.10
22828;BMP180;11580;52.562;13.418;2023-03-17T13:13:21;100400.00;;;20.10
22828;BMP180;11580;52.562;13.418;2023-03-17T13:15:59;100398.00;;;20.10
22828;BMP180;11580;52.562;13.418;2023-03-17T13:18:48;100391.00;;;20.10
22828;BMP180;11580;52.562;13.418;2023-03-17T13:21:21;100395.00;;;20.20
22828;BMP180;11580;52.562;13.418;2023-03-17T13:24:18;100389.00;;;20.20
22828;BMP180;11580;52.562;13.418;2023-03-17T13:26:56;100398.00;;;20.30
22828;BMP180;11580;52.562;13.418;2023-03-17T13:29:41;100389.00;;;20.40
22828;BMP180;11580;52.562;13.418;2023-03-17T13:32:33;100388.00;;;20.40
22828;BMP180;11580;52.562;13.418;2023-03-17T13:35:18;100380.00;;;20.40
22828;BMP180;11580;52.562;13.418;2023-03-17T13:38:15;100378.00;;;20.40
22828;BMP180;11580;52.562;13.418;2023-03-17T13:41:06;100382.00;;;20.50
22828;BMP180;11580;52.562;13.418;2023-03-17T13:43:59;100388.00;;;20.50
22828;BMP180;11580;52.562;13.418;2023-03-17T13:46:41;100377.00;;;20.60
22828;BMP180;11580;52.562;13.418;2023-03-17T13:49:26;100382.00;;;20.60
22828;BMP180;11580;52.562;13.418;2023-03-17T13:52:00;100404.00;;;20.60
22828;BMP180;11580;52.562;13.418;2023-03-17T13:54:33;100408.00;;;20.60
22828;BMP180;11580;52.562;13.418;2023-03-17T13:57:23;100396.00;;;20.60
22828;BMP180;11580;52.562;13.418;2023-03-17T14:00:00;100404.00;;;20.60
22828;BMP180;11580;52.562;13.418;2023-03-17T14:02:35;100401.00;;;20.60
22828;BMP180;11580;52.562;13.418;2023-03-17T14:05:07;100396.00;;;20.60
22828;BMP180;11580;52.562;13.418;2023-03-17T14:07:49;100388.00;;;20.50
22828;BMP180;11580;52.562;13.418;2023-03-17T14:10:22;100395.00;;;20.50
22828;BMP180;11580;52.562;13.418;2023-03-17T14:12:58;100391.00;;;20.50
22828;BMP180;11580;52.562;13.418;2023-03-17T14:15:31;100394.00;;;20.50
22828;BMP180;11580;52.562;13.418;2023-03-17T14:18:07;100401.00;;;20.50
22828;BMP180;11580;52.562;13.418;2023-03-17T14:20:35;100386.00;;;20.50
22828;BMP180;11580;52.562;13.418;2023-03-17T14:23:05;100385.00;;;20.40